Time;durP1;ratioP1;P1;durP2;ratioP2;P2;SDS_P1;SDS_P2;PMS_P1;PMS_P2;Temp;Humidity;BMP_temperature;BMP_pressure;BME280_temperature;BME280_humidity;BME280_pressure;Samples;Min_cycle;Max_cycle;Signal;HPM_P1;HPM_P2
2023/07/09 00:00:30;;;;;;;1.67;0.75;;;;;;;23.86;59.47;101315.50;4940111;28;20066;-67
2023/07/09 00:02:55;;;;;;;0.70;0.68;;;;;;;23.96;59.39;101317.25;4916228;29;20042;-66
2023/07/09 00:05:21;;;;;;;1.20;0.82;;;;;;;23.70;60.02;101319.03;4924530;28;20046;-67
2023/07/09 00:07:46;;;;;;;3.90;1.00;;;;;;;23.79;59.71;101318.44;4982000;28;20026;-67
2023/07/09 00:10:19;;;;;;;1.23;0.88;;;;;;;23.87;59.88;101311.53;4971580;28;20042;-66
2023/07/09 00:12:46;;;;;;;1.27;0.60;;;;;;;23.84;57.15;101317.91;4965039;28;20093;-66
2023/07/09 00:15:15;;;;;;;0.68;0.68;;;;;;;23.95;57.07;101321.19;4971557;28;20120;-66
2023/07/09 00:17:41;;;;;;;0.90;0.70;;;;;;;24.09;56.73;101331.88;4972042;28;20431;-67
2023/07/09 00:20:15;;;;;;;1.00;0.75;;;;;;;23.98;57.49;101323.09;4969228;28;20435;-66
2023/07/09 00:22:41;;;;;;;1.10;0.70;;;;;;;23.87;56.89;101317.81;4974444;28;20041;-67
2023/07/09 00:25:13;;;;;;;1.33;0.98;;;;;;;23.89;57.13;101315.41;4973771;28;20479;-66
2023/07/09 00:27:39;;;;;;;0.70;0.57;;;;;;;23.76;58.37;101325.56;4971496;28;20034;-67
2023/07/09 00:30:15;;;;;;;1.02;0.55;;;;;;;23.82;57.96;101329.34;4970871;28;20042;-66
2023/07/09 00:32:43;;;;;;;1.65;0.55;;;;;;;23.63;58.26;101318.41;4974174;28;20128;-66
2023/07/09 00:35:12;;;;;;;4.00;1.25;;;;;;;23.63;58.72;101318.41;4979490;28;20150;-66
2023/07/09 00:37:37;;;;;;;1.00;0.70;;;;;;;23.48;57.77;101326.19;4971862;28;20038;-67
2023/07/09 00:40:04;;;;;;;0.82;0.70;;;;;;;23.46;58.80;101320.34;4971448;28;20838;-66
2023/07/09 00:42:30;;;;;;;4.68;0.90;;;;;;;23.45;58.86;101323.53;4970638;28;20026;-67
2023/07/09 00:44:56;;;;;;;1.45;0.82;;;;;;;23.43;59.46;101332.19;4970772;28;20494;-67
2023/07/09 00:47:25;;;;;;;1.77;0.63;;;;;;;23.37;60.06;101316.63;4971396;28;20114;-67
2023/07/09 00:50:31;;;;;;;0.65;0.55;;;;;;;23.39;59.65;101320.50;4966686;28;20043;-67
2023/07/09 00:53:02;;;;;;;1.85;1.00;;;;;;;23.40;58.96;101321.28;4969730;28;20038;-67
2023/07/09 00:55:31;;;;;;;;;;;;;;;23.28;60.23;101328.19;4968966;28;20042;-67
2023/07/09 00:58:01;;;;;;;0.80;0.77;;;;;;;23.29;59.95;101325.00;4961839;28;19914;-67
2023/07/09 01:00:46;;;;;;;1.43;0.80;;;;;;;23.44;58.00;101311.72;4975276;28;20073;-67
2023/07/09 01:03:22;;;;;;;1.05;0.68;;;;;;;23.39;58.05;101314.22;4969149;28;20411;-67
2023/07/09 01:05:51;;;;;;;1.13;0.52;;;;;;;23.14;59.04;101321.00;4958145;28;20484;-67
2023/07/09 01:08:19;;;;;;;1.15;0.73;;;;;;;23.18;58.65;101312.69;4982727;28;20018;-66
2023/07/09 01:10:46;;;;;;;0.95;0.50;;;;;;;22.98;59.18;101311.91;4953742;28;20042;-66
2023/07/09 01:13:12;;;;;;;0.65;0.50;;;;;;;22.99;59.07;101319.75;4969975;28;20043;-65
2023/07/09 01:15:37;;;;;;;0.65;0.55;;;;;;;22.79;59.73;101320.91;4963789;28;20138;-66
2023/07/09 01:18:04;;;;;;;0.88;0.70;;;;;;;22.90;59.89;101316.75;4959527;28;20082;-65
2023/07/09 01:20:30;;;;;;;2.67;0.80;;;;;;;23.01;59.04;101311.06;4969875;28;20557;-66
2023/07/09 01:23:00;;;;;;;0.57;0.45;;;;;;;23.14;58.64;101315.50;4973212;28;20042;-68
2023/07/09 01:25:29;;;;;;;2.97;1.95;;;;;;;23.15;58.01;101308.78;4973291;28;20392;-66
2023/07/09 01:27:55;;;;;;;0.75;0.70;;;;;;;23.10;58.32;101306.56;4971399;28;20089;-68
2023/07/09 01:30:36;;;;;;;0.68;0.52;;;;;;;23.14;57.81;101310.00;4969236;28;20034;-66
2023/07/09 01:33:03;;;;;;;1.15;0.70;;;;;;;23.03;57.78;101301.22;4973706;28;20411;-66
2023/07/09 01:35:31;;;;;;;0.95;0.80;;;;;;;23.01;58.34;101306.34;4995708;28;20407;-66
2023/07/09 01:37:57;;;;;;;0.77;0.70;;;;;;;23.02;58.49;101302.41;4974995;28;20030;-66
2023/07/09 01:40:25;;;;;;;1.15;0.65;;;;;;;23.10;57.57;101308.53;4963672;28;20126;-69
2023/07/09 01:42:51;;;;;;;1.20;0.68;;;;;;;23.10;57.23;101303.81;4970453;28;20155;-66
2023/07/09 01:45:20;;;;;;;1.88;0.65;;;;;;;22.94;57.53;101311.97;4973544;28;20038;-66
2023/07/09 01:47:46;;;;;;;1.23;0.70;;;;;;;22.83;58.19;101310.63;4957228;28;20041;-66
2023/07/09 01:50:12;;;;;;;1.13;0.60;;;;;;;22.67;59.01;101307.78;4974028;28;20708;-66
2023/07/09 01:52:41;;;;;;;2.17;0.90;;;;;;;22.47;60.02;101298.75;4973378;28;20034;-65
2023/07/09 01:55:10;;;;;;;0.57;0.57;;;;;;;22.65;59.43;101299.97;4974449;28;20404;-66
2023/07/09 01:57:36;;;;;;;1.30;0.77;;;;;;;22.72;57.86;101301.81;4973104;28;20049;-68
2023/07/09 02:00:05;;;;;;;1.08;0.88;;;;;;;22.76;57.40;101299.78;4978848;28;20031;-65
2023/07/09 02:02:42;;;;;;;1.30;0.88;;;;;;;22.48;58.63;101300.28;4970693;28;20046;-66
2023/07/09 02:05:10;;;;;;;2.35;1.10;;;;;;;22.45;58.69;101294.44;4972739;28;20476;-66
2023/07/09 02:07:36;;;;;;;0.70;0.60;;;;;;;22.30;60.34;101300.59;4970734;28;20525;-71
2023/07/09 02:10:02;;;;;;;0.63;0.63;;;;;;;22.28;60.48;101305.72;4970902;28;20062;-65
2023/07/09 02:12:28;;;;;;;0.90;0.70;;;;;;;22.07;60.87;101304.13;4980874;28;20039;-66
2023/07/09 02:14:53;;;;;;;1.05;0.50;;;;;;;22.19;60.33;101297.25;4972901;28;20029;-66
2023/07/09 02:17:19;;;;;;;0.70;0.50;;;;;;;22.16;60.11;101298.09;4972549;28;20041;-66
2023/07/09 02:19:45;;;;;;;1.00;0.65;;;;;;;22.19;59.93;101303.53;4973293;28;20027;-67
2023/07/09 02:22:11;;;;;;;0.70;0.60;;;;;;;22.06;60.91;101299.06;4968553;28;20106;-66
2023/07/09 02:24:37;;;;;;;1.08;0.90;;;;;;;21.92;62.07;101305.53;4971579;28;20042;-66
2023/07/09 02:27:05;;;;;;;1.00;0.65;;;;;;;21.84;61.85;101295.88;4973822;28;20061;-65
2023/07/09 02:29:31;;;;;;;0.95;0.73;;;;;;;21.70;62.00;101296.03;4980347;28;20035;-66
2023/07/09 02:31:58;;;;;;;0.80;0.47;;;;;;;21.81;61.13;101301.41;4970749;28;20046;-67
2023/07/09 02:34:29;;;;;;;1.23;0.80;;;;;;;21.82;61.27;101298.25;4981683;28;20038;-68
2023/07/09 02:36:56;;;;;;;1.23;0.80;;;;;;;21.88;61.35;101298.53;4972491;28;20035;-66
2023/07/09 02:39:22;;;;;;;1.75;0.60;;;;;;;21.91;60.61;101303.22;4971196;28;20046;-66
2023/07/09 02:41:48;;;;;;;0.98;0.82;;;;;;;21.86;61.24;101296.22;4971781;28;20042;-66
2023/07/09 02:44:14;;;;;;;1.38;1.15;;;;;;;21.95;60.61;101290.97;4971418;28;20034;-67
2023/07/09 02:46:39;;;;;;;0.43;0.43;;;;;;;21.91;60.90;101292.25;4973427;28;20058;-68
2023/07/09 02:49:06;;;;;;;1.50;0.95;;;;;;;21.84;61.17;101292.34;4977381;28;20506;-66
2023/07/09 02:51:33;;;;;;;1.35;0.77;;;;;;;21.71;61.93;101294.88;4981743;28;20097;-68
2023/07/09 02:54:02;;;;;;;2.67;0.43;;;;;;;21.79;61.65;101290.06;4979036;28;20030;-68
2023/07/09 02:56:28;;;;;;;0.50;0.50;;;;;;;21.78;60.25;101288.47;4977270;28;20065;-69
2023/07/09 02:58:53;;;;;;;0.88;0.68;;;;;;;21.87;60.67;101295.06;4978521;28;20035;-68
2023/07/09 03:01:24;;;;;;;0.77;0.55;;;;;;;21.75;61.34;101292.84;4977708;28;20122;-68
2023/07/09 03:03:52;;;;;;;1.50;0.65;;;;;;;21.78;61.05;101286.53;4976360;28;20042;-68
2023/07/09 03:06:20;;;;;;;0.40;0.40;;;;;;;21.70;61.26;101296.03;4954925;28;20450;-67
2023/07/09 03:08:45;;;;;;;2.60;0.80;;;;;;;21.82;60.49;101291.97;4963124;28;20026;-68
2023/07/09 03:11:13;;;;;;;0.60;0.50;;;;;;;21.79;60.13;101298.28;4959835;28;20033;-69
2023/07/09 03:13:38;;;;;;;0.93;0.55;;;;;;;21.76;60.05;101293.59;4975123;28;20027;-69
2023/07/09 03:16:04;;;;;;;0.52;0.43;;;;;;;21.67;60.64;101296.88;4976849;28;20031;-68
2023/07/09 03:18:30;;;;;;;2.67;0.93;;;;;;;21.38;62.61;101302.00;4976508;28;20035;-68
2023/07/09 03:20:55;;;;;;;0.50;0.50;;;;;;;21.37;62.94;101299.66;4976539;28;20041;-66
2023/07/09 03:23:21;;;;;;;1.30;0.73;;;;;;;21.23;63.71;101311.59;4978650;28;20041;-68
2023/07/09 03:25:47;;;;;;;1.65;0.77;;;;;;;21.25;64.10;101306.47;4988639;28;20044;-67
2023/07/09 03:28:15;;;;;;;1.55;0.85;;;;;;;21.09;64.11;101302.75;4989099;28;20409;-68
2023/07/09 03:30:43;;;;;;;1.42;0.85;;;;;;;21.27;63.28;101304.09;4989941;28;20118;-69
2023/07/09 03:33:10;;;;;;;1.73;0.82;;;;;;;21.53;61.79;101313.53;4976730;28;20035;-68
2023/07/09 03:35:36;;;;;;;2.70;0.95;;;;;;;21.52;61.21;101298.28;4980404;28;20027;-68
2023/07/09 03:38:01;;;;;;;0.90;0.60;;;;;;;21.38;60.63;101315.72;4971210;28;20058;-69
2023/07/09 03:40:27;;;;;;;1.42;0.98;;;;;;;21.58;59.36;101313.09;4977098;28;20039;-67
2023/07/09 03:42:52;;;;;;;0.70;0.52;;;;;;;21.60;59.45;101301.69;4976334;28;20042;-69
2023/07/09 03:45:18;;;;;;;2.97;1.10;;;;;;;21.58;58.46;101304.88;4977028;28;20054;-69
2023/07/09 03:47:43;;;;;;;1.08;0.80;;;;;;;21.70;58.56;101301.53;4960920;28;20050;-67
2023/07/09 03:50:09;;;;;;;0.63;0.50;;;;;;;21.67;58.36;101316.09;4968166;28;20066;-69
2023/07/09 03:52:35;;;;;;;0.95;0.68;;;;;;;21.62;60.44;101307.53;4973978;28;20053;-69
2023/07/09 03:55:03;;;;;;;2.63;1.00;;;;;;;21.49;61.89;101319.06;4972525;28;20575;-69
2023/07/09 03:57:33;;;;;;;0.75;0.60;;;;;;;21.38;62.50;101312.97;4978712;28;20126;-69
2023/07/09 03:59:58;;;;;;;1.10;0.65;;;;;;;21.38;60.25;101315.72;4982311;28;20514;-68
2023/07/09 04:02:24;;;;;;;1.08;0.73;;;;;;;21.50;60.67;101317.88;4975695;28;20117;-69
2023/07/09 04:04:49;;;;;;;0.88;0.80;;;;;;;21.59;60.14;101317.38;4974499;28;20029;-68
2023/07/09 04:07:15;;;;;;;0.82;0.60;;;;;;;21.54;60.44;101320.59;4972582;28;20038;-69
2023/07/09 04:09:41;;;;;;;0.77;0.40;;;;;;;21.60;62.00;101323.63;4984449;28;20078;-68
2023/07/09 04:12:08;;;;;;;0.63;0.60;;;;;;;21.47;61.72;101321.44;4978873;28;20436;-69
2023/07/09 04:14:34;;;;;;;1.60;1.02;;;;;;;21.54;63.19;101326.81;4974615;28;20380;-69
2023/07/09 04:16:59;;;;;;;0.98;0.80;;;;;;;21.51;62.59;101322.19;4974354;28;20069;-69
2023/07/09 04:19:25;;;;;;;1.63;0.80;;;;;;;21.52;61.30;101318.22;4975499;28;20054;-69
2023/07/09 04:21:50;;;;;;;1.08;0.75;;;;;;;21.54;60.28;101313.13;4976124;28;20562;-67
2023/07/09 04:24:17;;;;;;;3.88;0.60;;;;;;;21.68;59.92;101320.38;4973971;28;20621;-69
2023/07/09 04:26:42;;;;;;;0.63;0.55;;;;;;;21.75;58.58;101303.03;4985335;28;20410;-68
2023/07/09 04:29:08;;;;;;;1.10;0.82;;;;;;;21.75;57.28;101311.25;4978788;28;20027;-68
2023/07/09 04:31:34;;;;;;;0.70;0.60;;;;;;;21.79;57.45;101312.78;4971968;28;20124;-69
2023/07/09 04:33:59;;;;;;;1.13;0.63;;;;;;;21.73;58.28;101305.41;4983277;28;20033;-68
2023/07/09 04:36:26;;;;;;;1.25;0.57;;;;;;;21.55;60.59;101322.91;4976041;28;20411;-69
2023/07/09 04:38:51;;;;;;;0.68;0.60;;;;;;;21.50;61.38;101317.88;4972621;28;20027;-68
2023/07/09 04:41:17;;;;;;;0.70;0.70;;;;;;;21.56;60.89;101324.44;4955627;28;20039;-69
2023/07/09 04:43:43;;;;;;;0.77;0.73;;;;;;;21.61;61.27;101316.94;4972910;28;20026;-69
2023/07/09 04:46:08;;;;;;;2.13;0.70;;;;;;;21.54;60.70;101315.84;4973469;28;20081;-69
2023/07/09 04:48:34;;;;;;;1.20;0.80;;;;;;;21.61;62.68;101322.44;4972757;28;20046;-69
2023/07/09 04:50:59;;;;;;;0.93;0.80;;;;;;;21.55;63.92;101325.66;4973877;28;20043;-69
2023/07/09 04:53:25;;;;;;;0.98;0.70;;;;;;;21.55;63.53;101322.91;4971672;28;20026;-68
2023/07/09 04:55:51;;;;;;;1.98;0.95;;;;;;;21.72;62.44;101320.34;4972653;28;20113;-69
2023/07/09 04:58:18;;;;;;;1.77;1.05;;;;;;;21.82;61.24;101313.91;4985369;28;20034;-69
2023/07/09 05:00:44;;;;;;;1.30;0.90;;;;;;;21.82;59.75;101327.63;4968658;28;20661;-69
2023/07/09 05:03:09;;;;;;;1.65;0.65;;;;;;;21.92;59.41;101318.47;4966974;28;20033;-70
2023/07/09 05:05:35;;;;;;;1.75;0.88;;;;;;;22.07;58.79;101323.31;4976570;28;20042;-69
2023/07/09 05:08:01;;;;;;;1.10;0.95;;;;;;;22.10;58.40;101319.75;4972626;28;20117;-68
2023/07/09 05:10:26;;;;;;;0.95;0.60;;;;;;;22.25;57.26;101320.28;4982623;28;20121;-69
2023/07/09 05:12:54;;;;;;;0.60;0.60;;;;;;;22.29;57.38;101316.31;4976870;28;20123;-69
2023/07/09 05:15:22;;;;;;;0.70;0.52;;;;;;;22.26;56.77;101319.88;4972144;28;20066;-69
2023/07/09 05:17:47;;;;;;;2.55;0.70;;;;;;;22.59;56.76;101323.63;4972399;28;20050;-69
2023/07/09 05:20:14;;;;;;;1.25;0.70;;;;;;;23.07;55.37;101326.63;4974146;28;20027;-69
2023/07/09 05:22:46;;;;;;;1.00;0.70;;;;;;;23.70;54.16;101326.50;4974022;28;20419;-66
2023/07/09 05:25:11;;;;;;;0.93;0.73;;;;;;;24.18;54.04;101330.06;4973882;28;20035;-66
2023/07/09 05:27:37;;;;;;;1.45;1.02;;;;;;;24.56;52.12;101327.56;4975194;28;20483;-66
2023/07/09 05:30:06;;;;;;;0.82;0.80;;;;;;;24.93;51.80;101331.69;4973756;28;20042;-66
2023/07/09 05:32:53;;;;;;;1.13;0.80;;;;;;;25.21;49.46;101330.09;4972222;28;20030;-66
2023/07/09 05:35:19;;;;;;;1.08;0.70;;;;;;;25.54;50.30;101331.50;4918737;29;20048;-66
2023/07/09 05:37:44;;;;;;;2.35;0.80;;;;;;;25.72;49.15;101340.00;4919630;29;20615;-65
2023/07/09 05:40:10;;;;;;;1.08;0.70;;;;;;;25.77;49.63;101340.22;4921597;29;20028;-66
2023/07/09 05:42:35;;;;;;;1.65;0.77;;;;;;;25.90;49.67;101342.97;4914922;29;20067;-68
2023/07/09 05:45:01;;;;;;;1.38;0.68;;;;;;;26.05;50.70;101343.31;4930817;29;20039;-66
2023/07/09 05:47:26;;;;;;;1.10;0.68;;;;;;;26.15;49.39;101337.44;4921427;29;20572;-66
2023/07/09 05:49:55;;;;;;;0.77;0.77;;;;;;;26.34;49.65;101339.19;4918221;29;20517;-66
2023/07/09 05:52:23;;;;;;;1.40;0.70;;;;;;;26.49;50.31;101334.72;4898385;29;20066;-65
2023/07/09 05:54:50;;;;;;;4.78;0.80;;;;;;;26.56;49.36;101333.69;4916009;29;20043;-66
2023/07/09 05:57:16;;;;;;;1.00;0.82;;;;;;;26.71;47.54;101334.81;4916992;29;20119;-68
2023/07/09 05:59:41;;;;;;;1.58;1.00;;;;;;;26.71;46.78;101338.31;4916008;29;20563;-65
2023/07/09 06:02:11;;;;;;;2.47;1.52;;;;;;;26.79;49.13;101341.59;4893446;29;20054;-66
2023/07/09 06:04:37;;;;;;;1.63;1.10;;;;;;;26.81;49.81;101336.38;4912901;29;20040;-71
2023/07/09 06:07:03;;;;;;;1.90;1.10;;;;;;;26.93;48.31;101329.25;4924003;29;20088;-67
2023/07/09 06:09:29;;;;;;;1.33;0.90;;;;;;;27.01;47.33;101330.53;4923953;29;20043;-67
2023/07/09 06:11:55;;;;;;;1.10;0.63;;;;;;;27.11;47.88;101334.91;4939407;28;20422;-66
2023/07/09 06:14:24;;;;;;;0.95;0.80;;;;;;;27.17;47.82;101339.44;4971709;28;20042;-66
2023/07/09 06:16:49;;;;;;;1.60;0.95;;;;;;;27.19;48.23;101338.97;4973802;28;20027;-65
2023/07/09 06:19:16;;;;;;;2.35;1.00;;;;;;;27.32;48.99;101339.66;4971346;28;20618;-66
2023/07/09 06:21:41;;;;;;;1.67;0.80;;;;;;;27.44;49.91;101339.63;4971310;28;20034;-68
2023/07/09 06:24:08;;;;;;;1.00;0.80;;;;;;;27.57;47.43;101340.28;4973557;28;20843;-66
2023/07/09 06:26:34;;;;;;;1.90;1.10;;;;;;;27.53;47.04;101338.88;4980071;28;20085;-66
2023/07/09 06:28:59;;;;;;;1.23;0.85;;;;;;;27.57;48.10;101339.50;4978633;28;20038;-67
2023/07/09 06:31:25;;;;;;;1.33;0.68;;;;;;;27.63;46.91;101344.00;4971540;28;20472;-67
2023/07/09 06:33:51;;;;;;;2.38;0.98;;;;;;;27.70;46.75;101345.69;4972521;28;20562;-67
2023/07/09 06:36:18;;;;;;;1.17;0.98;;;;;;;27.53;46.43;101345.19;4972204;28;20065;-66
2023/07/09 06:38:44;;;;;;;1.08;0.90;;;;;;;27.60;47.40;101333.06;4972712;28;20092;-68
2023/07/09 06:41:10;;;;;;;1.73;1.08;;;;;;;27.72;48.64;101334.94;4970463;28;20034;-68
2023/07/09 06:43:38;;;;;;;3.28;0.85;;;;;;;27.80;48.16;101336.22;4973234;28;20046;-68
2023/07/09 06:46:05;;;;;;;1.25;0.75;;;;;;;27.73;47.84;101344.03;4972134;28;20026;-66
2023/07/09 06:48:31;;;;;;;1.30;0.80;;;;;;;27.86;47.01;101348.25;4969390;28;20153;-68
2023/07/09 06:50:58;;;;;;;1.30;0.80;;;;;;;28.15;45.66;101353.44;4973637;28;20130;-66
2023/07/09 06:53:24;;;;;;;1.48;1.10;;;;;;;28.04;46.39;101351.09;4971691;28;20042;-67
2023/07/09 06:55:55;;;;;;;1.08;0.90;;;;;;;28.17;46.60;101356.50;4971995;28;20049;-66
2023/07/09 06:58:25;;;;;;;;;;;;;;;27.86;46.69;101356.53;4972422;28;20218;-67
2023/07/09 07:00:51;;;;;;;1.92;0.88;;;;;;;28.05;47.48;101358.19;4967981;28;19918;-66
2023/07/09 07:03:17;;;;;;;1.02;0.93;;;;;;;28.09;47.04;101358.03;4976782;28;20085;-67
2023/07/09 07:05:53;;;;;;;2.08;1.20;;;;;;;28.40;47.99;101358.72;4972634;28;20511;-67
2023/07/09 07:08:20;;;;;;;2.45;1.00;;;;;;;28.49;47.37;101353.19;4961150;28;20040;-67
2023/07/09 07:10:51;;;;;;;7.25;1.08;;;;;;;28.76;45.24;101361.56;4970924;28;20054;-66
2023/07/09 07:13:17;;;;;;;3.15;1.00;;;;;;;28.66;44.54;101356.44;4963181;28;20039;-67
2023/07/09 07:15:49;;;;;;;1.35;1.05;;;;;;;28.17;48.17;101351.75;4977018;28;20114;-66
2023/07/09 07:18:15;;;;;;;1.25;0.80;;;;;;;28.33;49.51;101354.25;4968435;28;20039;-66
2023/07/09 07:20:40;;;;;;;1.10;0.80;;;;;;;28.57;47.62;101362.00;4964481;28;20408;-66
2023/07/09 07:23:05;;;;;;;1.30;1.05;;;;;;;28.72;46.67;101360.94;4971564;28;20404;-69
2023/07/09 07:25:32;;;;;;;1.40;1.10;;;;;;;28.97;46.39;101355.06;4972473;28;20042;-66
2023/07/09 07:27:57;;;;;;;2.58;1.25;;;;;;;28.62;46.08;101356.59;4972154;28;20054;-66
2023/07/09 07:30:23;;;;;;;1.65;1.20;;;;;;;28.86;46.82;101356.75;4973165;28;20065;-67
2023/07/09 07:32:49;;;;;;;1.13;0.98;;;;;;;29.09;44.29;101347.78;4976515;28;20117;-66
2023/07/09 07:35:15;;;;;;;1.27;1.17;;;;;;;29.28;46.42;101352.09;4971014;28;20125;-66
2023/07/09 07:37:41;;;;;;;1.77;1.13;;;;;;;29.42;45.01;101346.66;4972545;28;20059;-66
2023/07/09 07:40:08;;;;;;;1.83;1.00;;;;;;;29.68;45.66;101346.25;4965232;28;20034;-68
2023/07/09 07:42:34;;;;;;;1.50;1.10;;;;;;;29.86;46.35;101348.97;4960441;28;20050;-69
2023/07/09 07:44:59;;;;;;;1.60;0.90;;;;;;;30.07;44.81;101354.28;4978153;28;20034;-68
2023/07/09 07:47:27;;;;;;;1.60;1.00;;;;;;;30.20;44.01;101351.25;4980194;28;20034;-66
2023/07/09 07:49:53;;;;;;;1.40;0.98;;;;;;;30.25;44.49;101345.81;4966923;28;20125;-68
2023/07/09 07:52:19;;;;;;;2.53;1.10;;;;;;;30.41;43.27;101358.56;4964300;28;20038;-68
2023/07/09 07:54:45;;;;;;;1.17;0.93;;;;;;;30.42;44.56;101353.75;4969030;28;20396;-69
2023/07/09 07:57:11;;;;;;;1.10;0.80;;;;;;;30.55;44.04;101359.84;4963795;28;20113;-66
2023/07/09 07:59:39;;;;;;;1.20;1.05;;;;;;;30.72;43.91;101361.72;4966732;28;20034;-66
2023/07/09 08:02:10;;;;;;;1.70;0.98;;;;;;;30.77;44.63;101357.50;4965697;28;20042;-66
2023/07/09 08:04:36;;;;;;;;;;;;;;;30.86;44.27;101351.88;4978392;28;20033;-69
2023/07/09 08:07:01;;;;;;;1.17;0.95;;;;;;;30.95;43.14;101357.38;4963309;28;19922;-66
2023/07/09 08:09:26;;;;;;;1.15;1.05;;;;;;;31.08;44.27;101355.84;4970851;28;20046;-68
2023/07/09 08:11:52;;;;;;;1.10;0.90;;;;;;;31.12;43.10;101352.88;4963689;28;20038;-68
2023/07/09 08:14:18;;;;;;;1.75;1.00;;;;;;;31.02;44.75;101348.66;4971839;28;20048;-66
2023/07/09 08:16:44;;;;;;;1.05;0.93;;;;;;;31.19;44.28;101352.47;4967547;28;20503;-68
2023/07/09 08:19:09;;;;;;;1.33;1.00;;;;;;;31.40;44.78;101345.03;4964411;28;20510;-66
2023/07/09 08:21:35;;;;;;;1.20;0.90;;;;;;;31.23;42.60;101346.72;4967999;28;20038;-66
2023/07/09 08:24:02;;;;;;;1.55;1.10;;;;;;;31.21;42.97;101358.34;4969182;28;20027;-66
2023/07/09 08:26:28;;;;;;;1.60;1.00;;;;;;;31.35;43.06;101352.00;4966499;28;20051;-65
2023/07/09 08:28:54;;;;;;;1.30;0.90;;;;;;;31.51;43.46;101351.56;4971545;28;20113;-67
2023/07/09 08:31:20;;;;;;;3.00;1.17;;;;;;;31.68;41.62;101346.22;4963600;28;20039;-69
2023/07/09 08:33:45;;;;;;;0.80;0.80;;;;;;;31.76;41.47;101342.56;4944060;28;20046;-69
2023/07/09 08:36:11;;;;;;;1.73;1.23;;;;;;;31.92;42.00;101347.63;4965282;28;20050;-65
2023/07/09 08:38:36;;;;;;;1.27;1.10;;;;;;;31.92;42.28;101346.88;4965020;28;20506;-66
2023/07/09 08:41:14;;;;;;;1.35;1.08;;;;;;;32.07;42.97;101346.81;4973814;28;20495;-66
2023/07/09 08:44:07;;;;;;;1.48;1.10;;;;;;;32.24;42.82;101345.78;4968100;28;20093;-66
2023/07/09 08:46:51;;;;;;;1.25;1.15;;;;;;;32.29;41.94;101350.66;4967616;28;20066;-67
2023/07/09 08:52:17;;;;;;;1.83;1.25;;;;;;;33.96;42.75;101339.06;4992618;23;20082;-64
2023/07/09 08:54:47;;;;;;;1.90;1.30;;;;;;;34.74;39.99;101352.16;4969642;28;20050;-66
2023/07/09 08:57:27;;;;;;;1.52;1.30;;;;;;;35.30;40.64;101348.19;4968751;28;20026;-64
2023/07/09 09:00:00;;;;;;;1.23;0.93;;;;;;;36.10;37.97;101354.72;4962091;28;20042;-66
2023/07/09 09:02:44;;;;;;;3.03;1.13;;;;;;;35.84;36.37;101347.88;4958043;28;20043;-62
2023/07/09 09:05:13;;;;;;;1.63;1.02;;;;;;;36.31;35.26;101337.53;4960289;28;20039;-64
2023/07/09 09:07:42;;;;;;;1.05;0.95;;;;;;;37.25;35.59;101348.22;4970985;28;20117;-66
2023/07/09 09:10:15;;;;;;;1.63;1.08;;;;;;;37.08;34.23;101354.00;4965557;28;20030;-63
2023/07/09 09:13:05;;;;;;;1.58;1.38;;;;;;;37.23;34.68;101359.22;4967822;28;20413;-63
2023/07/09 09:15:34;;;;;;;0.73;0.70;;;;;;;38.09;34.38;101346.16;4970937;28;20045;-64
2023/07/09 09:18:20;;;;;;;1.70;1.10;;;;;;;38.67;37.08;101350.81;4955404;28;20027;-63
2023/07/09 09:20:52;;;;;;;3.53;0.98;;;;;;;37.67;33.80;101348.38;4955215;28;20753;-66
2023/07/09 09:23:18;;;;;;;0.98;0.80;;;;;;;38.46;34.77;101349.81;4968919;28;20046;-65
2023/07/09 09:25:53;;;;;;;1.20;1.00;;;;;;;37.76;36.47;101344.47;4963897;28;20035;-64
2023/07/09 09:28:19;;;;;;;1.08;0.95;;;;;;;38.33;32.27;101346.91;4979528;28;20511;-65
2023/07/09 09:30:44;;;;;;;1.30;1.20;;;;;;;38.53;32.39;101351.25;4966602;28;20141;-65
2023/07/09 09:33:14;;;;;;;1.40;0.82;;;;;;;39.62;36.07;101350.09;4966973;28;20186;-64
2023/07/09 09:35:43;;;;;;;1.10;0.90;;;;;;;40.40;31.21;101347.25;4960097;28;20035;-63
2023/07/09 09:38:17;;;;;;;1.30;1.05;;;;;;;40.62;33.12;101342.41;4974325;28;20036;-64
2023/07/09 09:40:43;;;;;;;1.20;0.88;;;;;;;41.32;33.83;101349.75;4951038;28;20074;-65
2023/07/09 09:43:15;;;;;;;1.17;0.77;;;;;;;41.74;32.11;101344.78;4970511;28;20998;-63
2023/07/09 09:45:43;;;;;;;1.48;1.00;;;;;;;41.22;29.00;101341.00;4955776;28;20058;-65
2023/07/09 09:48:37;;;;;;;1.20;1.10;;;;;;;40.87;30.44;101344.41;4969407;28;20038;-65
2023/07/09 09:51:04;;;;;;;0.98;0.82;;;;;;;41.01;30.36;101345.09;4964127;28;20102;-64
2023/07/09 09:53:41;;;;;;;1.25;1.02;;;;;;;41.53;31.50;101350.47;4966780;28;20038;-64
2023/07/09 09:56:15;;;;;;;0.93;0.80;;;;;;;40.57;34.51;101343.31;4972279;28;20042;-64
2023/07/09 09:58:41;;;;;;;2.55;1.05;;;;;;;40.69;30.63;101339.66;4963258;28;20055;-65
2023/07/09 10:01:15;;;;;;;1.20;0.90;;;;;;;42.21;33.14;101345.25;4957600;28;20046;-64
2023/07/09 10:03:41;;;;;;;1.52;1.25;;;;;;;41.33;31.72;101342.75;4968294;28;20038;-64
2023/07/09 10:06:15;;;;;;;1.15;0.85;;;;;;;41.03;34.10;101334.00;4974242;28;20039;-65
2023/07/09 10:08:55;;;;;;;1.05;0.85;;;;;;;41.18;29.09;101339.78;4962836;28;20042;-64
2023/07/09 10:11:46;;;;;;;1.88;0.90;;;;;;;41.53;32.63;101336.31;4967385;28;20428;-65
2023/07/09 10:15:04;;;;;;;1.17;1.00;;;;;;;41.18;31.65;101331.31;4971982;28;20093;-66
2023/07/09 10:17:33;;;;;;;3.10;0.82;;;;;;;42.03;28.19;101334.97;4926062;28;20089;-64
2023/07/09 10:20:07;;;;;;;0.80;0.80;;;;;;;41.85;30.50;101338.84;4955732;28;20525;-64
2023/07/09 10:22:36;;;;;;;1.10;0.88;;;;;;;42.41;29.93;101340.81;4970691;28;20058;-65
2023/07/09 10:25:07;;;;;;;1.25;0.85;;;;;;;42.12;30.77;101335.19;4972125;28;20027;-66
2023/07/09 10:27:48;;;;;;;1.10;0.82;;;;;;;41.59;30.51;101334.09;4972551;28;20098;-65
2023/07/09 10:30:29;;;;;;;1.10;0.88;;;;;;;42.48;29.81;101340.09;4968579;28;20098;-63
2023/07/09 10:33:06;;;;;;;1.08;0.98;;;;;;;42.99;29.18;101335.13;4975333;28;20089;-64
2023/07/09 10:35:59;;;;;;;1.20;1.10;;;;;;;43.30;29.16;101336.69;4973600;28;20035;-64
2023/07/09 10:38:43;;;;;;;1.65;1.10;;;;;;;43.30;30.08;101331.00;4962702;28;20491;-65
2023/07/09 10:41:12;;;;;;;1.52;0.90;;;;;;;43.66;29.60;101330.78;4983937;28;20034;-63
2023/07/09 10:43:45;;;;;;;1.83;1.07;;;;;;;43.29;27.27;101323.78;4982422;28;20042;-64
2023/07/09 10:46:15;;;;;;;3.47;1.10;;;;;;;43.14;29.50;101329.44;4969666;28;20038;-64
2023/07/09 10:48:45;;;;;;;1.73;1.02;;;;;;;42.82;28.63;101332.09;4967163;28;20041;-65
2023/07/09 10:51:24;;;;;;;1.15;1.00;;;;;;;42.96;30.91;101333.41;4969073;28;20106;-65
2023/07/09 10:53:58;;;;;;;1.33;1.08;;;;;;;42.25;29.21;101325.81;4985581;28;20069;-63
2023/07/09 10:56:29;;;;;;;1.60;1.00;;;;;;;42.38;28.74;101316.41;4974626;28;20054;-65
2023/07/09 10:59:21;;;;;;;1.90;0.90;;;;;;;43.20;28.96;101315.81;4972549;28;20038;-64
2023/07/09 11:02:06;;;;;;;1.00;0.90;;;;;;;44.02;28.42;101317.06;4972668;28;20466;-65
2023/07/09 11:04:37;;;;;;;0.80;0.77;;;;;;;44.86;29.42;101315.28;4977990;28;20146;-63
2023/07/09 11:07:12;;;;;;;2.20;1.20;;;;;;;44.52;28.45;101306.59;4978694;28;20027;-63
2023/07/09 11:09:46;;;;;;;1.60;1.02;;;;;;;44.68;27.41;101316.53;4981287;28;20069;-64
2023/07/09 11:12:14;;;;;;;1.92;0.88;;;;;;;43.92;27.80;101308.34;4958543;28;20058;-63
2023/07/09 11:14:47;;;;;;;1.98;1.10;;;;;;;43.87;27.55;101309.31;4971215;28;20089;-63
2023/07/09 11:17:19;;;;;;;2.13;0.88;;;;;;;44.34;26.61;101308.56;4979260;28;20039;-63
2023/07/09 11:19:48;;;;;;;2.08;1.10;;;;;;;44.57;29.31;101305.59;4981157;28;20037;-65
2023/07/09 11:22:19;;;;;;;1.60;1.00;;;;;;;45.20;26.10;101312.56;4959776;28;20038;-65
2023/07/09 11:25:12;;;;;;;1.13;1.00;;;;;;;45.60;25.83;101301.00;4953173;28;20039;-65
2023/07/09 11:28:03;;;;;;;1.63;0.90;;;;;;;45.31;25.85;101308.47;4971559;28;20051;-65
2023/07/09 11:30:29;;;;;;;1.13;0.93;;;;;;;44.87;26.35;101302.59;4963582;28;20054;-65
2023/07/09 11:33:26;;;;;;;1.55;1.17;;;;;;;45.48;28.38;101302.78;4974017;28;20362;-64
2023/07/09 11:36:05;;;;;;;1.10;0.90;;;;;;;45.18;27.29;101295.31;4973413;28;20059;-65
2023/07/09 11:38:40;;;;;;;2.83;1.00;;;;;;;45.03;26.16;101289.72;4972401;28;20031;-63